sensor_id;sensor_type;location;lat;lon;timestamp;pressure;altitude;pressure_sealevel;temperature;humidity
43147;BME280;28752;48.266;7.402;2023-03-12T00:00:28;99099.84;;;3.06;71.68
43147;BME280;28752;48.266;7.402;2023-03-12T00:02:54;99100.44;;;3.09;71.84
43147;BME280;28752;48.266;7.402;2023-03-12T00:05:20;99096.16;;;3.08;71.02
43147;BME280;28752;48.266;7.402;2023-03-12T00:07:47;99092.50;;;3.11;70.35
43147;BME280;28752;48.266;7.402;2023-03-12T00:10:13;99091.34;;;3.15;69.94
43147;BME280;28752;48.266;7.402;2023-03-12T00:12:38;99099.09;;;3.03;70.38
43147;BME280;28752;48.266;7.402;2023-03-12T00:15:04;99108.19;;;3.11;70.57
43147;BME280;28752;48.266;7.402;2023-03-12T00:17:29;99086.97;;;3.02;70.39
43147;BME280;28752;48.266;7.402;2023-03-12T00:19:55;99104.97;;;3.07;70.59
43147;BME280;28752;48.266;7.402;2023-03-12T00:22:20;99106.50;;;3.10;70.46
43147;BME280;28752;48.266;7.402;2023-03-12T00:24:53;99106.50;;;3.10;71.34
43147;BME280;28752;48.266;7.402;2023-03-12T00:27:20;99108.28;;;3.09;71.08
43147;BME280;28752;48.266;7.402;2023-03-12T00:29:45;99106.72;;;3.07;71.14
43147;BME280;28752;48.266;7.402;2023-03-12T00:32:11;99106.94;;;3.03;71.23
43147;BME280;28752;48.266;7.402;2023-03-12T00:34:36;99103.41;;;2.92;71.57
43147;BME280;28752;48.266;7.402;2023-03-12T00:37:02;99111.84;;;3.08;71.68
43147;BME280;28752;48.266;7.402;2023-03-12T00:39:27;99099.63;;;3.09;72.41
43147;BME280;28752;48.266;7.402;2023-03-12T00:41:52;99103.06;;;3.22;72.80
43147;BME280;28752;48.266;7.402;2023-03-12T00:44:18;99091.41;;;3.26;72.36
43147;BME280;28752;48.266;7.402;2023-03-12T00:46:44;99074.94;;;3.13;72.48
43147;BME280;28752;48.266;7.402;2023-03-12T00:49:10;99096.84;;;3.36;71.99
43147;BME280;28752;48.266;7.402;2023-03-12T00:51:36;99101.00;;;3.38;71.98
43147;BME280;28752;48.266;7.402;2023-03-12T00:54:02;99095.28;;;3.33;71.15
43147;BME280;28752;48.266;7.402;2023-03-12T00:56:27;99107.00;;;3.41;71.11
43147;BME280;28752;48.266;7.402;2023-03-12T00:58:52;99105.22;;;3.41;71.23
43147;BME280;28752;48.266;7.402;2023-03-12T01:01:18;99104.91;;;3.33;70.86
43147;BME280;28752;48.266;7.402;2023-03-12T01:03:44;99106.22;;;3.51;69.76
43147;BME280;28752;48.266;7.402;2023-03-12T01:06:10;99101.66;;;3.42;69.65
43147;BME280;28752;48.266;7.402;2023-03-12T01:08:36;99107.06;;;3.52;70.93
43147;BME280;28752;48.266;7.402;2023-03-12T01:11:01;99105.41;;;3.51;71.14
43147;BME280;28752;48.266;7.402;2023-03-12T01:13:27;99105.53;;;3.49;70.03
43147;BME280;28752;48.266;7.402;2023-03-12T01:15:52;99110.44;;;3.54;70.57
43147;BME280;28752;48.266;7.402;2023-03-12T01:18:17;99109.53;;;3.66;70.56
43147;BME280;28752;48.266;7.402;2023-03-12T01:20:43;99102.63;;;3.65;70.90
43147;BME280;28752;48.266;7.402;2023-03-12T01:23:09;99105.75;;;3.70;70.19
43147;BME280;28752;48.266;7.402;2023-03-12T01:25:35;99095.81;;;3.63;71.21
43147;BME280;28752;48.266;7.402;2023-03-12T01:28:00;99109.22;;;3.71;70.60
43147;BME280;28752;48.266;7.402;2023-03-12T01:30:26;99108.28;;;3.72;71.13
43147;BME280;28752;48.266;7.402;2023-03-12T01:32:52;99099.06;;;3.66;70.68
43147;BME280;28752;48.266;7.402;2023-03-12T01:35:17;99108.38;;;3.70;70.32
43147;BME280;28752;48.266;7.402;2023-03-12T01:37:43;99105.25;;;3.65;70.04
43147;BME280;28752;48.266;7.402;2023-03-12T01:40:14;99106.84;;;3.55;70.21
43147;BME280;28752;48.266;7.402;2023-03-12T01:42:39;99109.94;;;3.73;69.93
43147;BME280;28752;48.266;7.402;2023-03-12T01:45:05;99109.00;;;3.74;70.35
43147;BME280;28752;48.266;7.402;2023-03-12T01:47:31;99093.63;;;3.69;70.28
43147;BME280;28752;48.266;7.402;2023-03-12T01:49:57;99096.28;;;3.81;70.52
43147;BME280;28752;48.266;7.402;2023-03-12T01:52:27;99098.47;;;3.87;70.82
43147;BME280;28752;48.266;7.402;2023-03-12T01:55:12;99102.41;;;3.92;71.23
43147;BME280;28752;48.266;7.402;2023-03-12T01:57:46;99099.56;;;3.96;71.19
43147;BME280;28752;48.266;7.402;2023-03-12T02:00:16;99103.78;;;3.98;70.37
43147;BME280;28752;48.266;7.402;2023-03-12T02:02:44;99086.81;;;3.91;71.12
43147;BME280;28752;48.266;7.402;2023-03-12T02:07:42;99085.53;;;3.72;72.10
43147;BME280;28752;48.266;7.402;2023-03-12T02:10:08;99067.69;;;3.78;72.34
43147;BME280;28752;48.266;7.402;2023-03-12T02:12:34;99066.06;;;3.77;72.89
43147;BME280;28752;48.266;7.402;2023-03-12T02:14:59;99064.25;;;3.77;73.32
43147;BME280;28752;48.266;7.402;2023-03-12T02:17:25;99040.38;;;3.69;73.83
43147;BME280;28752;48.266;7.402;2023-03-12T02:20:13;99047.94;;;3.73;73.98
43147;BME280;28752;48.266;7.402;2023-03-12T02:22:43;99027.94;;;3.72;73.35
43147;BME280;28752;48.266;7.402;2023-03-12T02:27:45;99015.41;;;3.65;71.81
43147;BME280;28752;48.266;7.402;2023-03-12T02:30:12;99010.63;;;3.59;71.51
43147;BME280;28752;48.266;7.402;2023-03-12T02:32:41;99011.16;;;3.51;70.52
43147;BME280;28752;48.266;7.402;2023-03-12T02:35:08;99032.13;;;3.51;70.25
43147;BME280;28752;48.266;7.402;2023-03-12T02:37:33;99016.31;;;3.40;69.53
43147;BME280;28752;48.266;7.402;2023-03-12T02:40:04;99017.22;;;3.51;69.58
43147;BME280;28752;48.266;7.402;2023-03-12T02:42:34;99021.41;;;3.54;69.19
43147;BME280;28752;48.266;7.402;2023-03-12T02:45:00;99031.47;;;3.47;69.25
43147;BME280;28752;48.266;7.402;2023-03-12T02:47:26;99033.19;;;3.35;68.98
43147;BME280;28752;48.266;7.402;2023-03-12T02:49:51;99027.84;;;3.13;70.78
43147;BME280;28752;48.266;7.402;2023-03-12T02:52:16;99020.81;;;3.13;71.07
43147;BME280;28752;48.266;7.402;2023-03-12T02:54:42;99027.69;;;3.27;70.30
43147;BME280;28752;48.266;7.402;2023-03-12T02:57:07;99040.53;;;3.30;69.96
43147;BME280;28752;48.266;7.402;2023-03-12T02:59:33;99041.25;;;3.32;70.25
43147;BME280;28752;48.266;7.402;2023-03-12T03:01:59;99032.59;;;3.32;70.55
43147;BME280;28752;48.266;7.402;2023-03-12T03:04:26;99024.03;;;3.17;70.77
43147;BME280;28752;48.266;7.402;2023-03-12T03:06:52;99041.03;;;3.11;71.70
43147;BME280;28752;48.266;7.402;2023-03-12T03:09:17;99036.41;;;3.15;72.13
43147;BME280;28752;48.266;7.402;2023-03-12T03:11:43;99035.78;;;3.11;73.04
43147;BME280;28752;48.266;7.402;2023-03-12T03:14:09;99034.06;;;3.23;73.41
43147;BME280;28752;48.266;7.402;2023-03-12T03:16:34;99023.78;;;3.33;72.79
43147;BME280;28752;48.266;7.402;2023-03-12T03:19:00;99036.03;;;3.32;72.98
43147;BME280;28752;48.266;7.402;2023-03-12T03:21:25;99023.78;;;3.33;72.31
43147;BME280;28752;48.266;7.402;2023-03-12T03:23:51;99003.78;;;3.32;72.16
43147;BME280;28752;48.266;7.402;2023-03-12T03:26:21;99004.41;;;3.35;71.85
43147;BME280;28752;48.266;7.402;2023-03-12T03:28:47;99011.63;;;3.45;72.09
43147;BME280;28752;48.266;7.402;2023-03-12T03:31:13;99027.53;;;3.42;71.67
43147;BME280;28752;48.266;7.402;2023-03-12T03:33:39;99014.75;;;3.37;71.93
43147;BME280;28752;48.266;7.402;2023-03-12T03:36:06;99020.63;;;3.41;72.39
43147;BME280;28752;48.266;7.402;2023-03-12T03:38:32;99028.97;;;3.46;71.90
43147;BME280;28752;48.266;7.402;2023-03-12T03:40:59;99022.81;;;3.47;71.60
43147;BME280;28752;48.266;7.402;2023-03-12T03:43:24;99016.41;;;3.51;71.36
43147;BME280;28752;48.266;7.402;2023-03-12T03:46:04;99008.22;;;3.55;71.15
43147;BME280;28752;48.266;7.402;2023-03-12T03:48:30;99005.06;;;3.74;70.93
43147;BME280;28752;48.266;7.402;2023-03-12T03:51:00;99006.22;;;3.95;71.30
43147;BME280;28752;48.266;7.402;2023-03-12T03:53:26;98989.75;;;3.81;71.04
43147;BME280;28752;48.266;7.402;2023-03-12T03:55:51;98997.41;;;3.96;71.42
43147;BME280;28752;48.266;7.402;2023-03-12T03:58:16;98980.91;;;3.71;72.14
43147;BME280;28752;48.266;7.402;2023-03-12T04:00:45;98997.00;;;3.78;74.05
43147;BME280;28752;48.266;7.402;2023-03-12T04:03:11;98996.16;;;3.77;73.25
43147;BME280;28752;48.266;7.402;2023-03-12T04:05:38;98999.72;;;3.76;73.82
43147;BME280;28752;48.266;7.402;2023-03-12T04:08:04;98991.97;;;3.74;74.55
43147;BME280;28752;48.266;7.402;2023-03-12T04:10:30;98997.97;;;3.77;73.85
43147;BME280;28752;48.266;7.402;2023-03-12T04:12:55;98999.94;;;3.73;75.37
43147;BME280;28752;48.266;7.402;2023-03-12T04:15:21;98998.13;;;3.98;72.78
43147;BME280;28752;48.266;7.402;2023-03-12T04:17:46;99002.97;;;3.80;73.91
43147;BME280;28752;48.266;7.402;2023-03-12T04:20:12;98997.63;;;3.81;73.27
43147;BME280;28752;48.266;7.402;2023-03-12T04:22:37;98994.69;;;3.62;73.70
43147;BME280;28752;48.266;7.402;2023-03-12T04:25:03;98995.75;;;3.70;73.17
43147;BME280;28752;48.266;7.402;2023-03-12T04:27:29;98999.16;;;3.84;73.13
43147;BME280;28752;48.266;7.402;2023-03-12T04:29:54;98993.56;;;3.88;73.16
43147;BME280;28752;48.266;7.402;2023-03-12T04:32:20;99000.03;;;3.96;73.64
43147;BME280;28752;48.266;7.402;2023-03-12T04:34:45;98994.91;;;3.94;74.96
43147;BME280;28752;48.266;7.402;2023-03-12T04:37:11;98991.06;;;3.87;75.13
43147;BME280;28752;48.266;7.402;2023-03-12T04:39:40;98992.97;;;3.85;74.82
43147;BME280;28752;48.266;7.402;2023-03-12T04:42:06;98989.56;;;3.96;74.75
43147;BME280;28752;48.266;7.402;2023-03-12T04:44:32;98984.91;;;3.99;74.79
43147;BME280;28752;48.266;7.402;2023-03-12T04:46:58;98976.75;;;4.04;74.69
43147;BME280;28752;48.266;7.402;2023-03-12T04:49:23;98985.41;;;4.04;74.89
43147;BME280;28752;48.266;7.402;2023-03-12T04:51:49;98961.91;;;3.91;74.77
43147;BME280;28752;48.266;7.402;2023-03-12T04:54:14;98993.84;;;3.97;74.63
43147;BME280;28752;48.266;7.402;2023-03-12T04:56:39;98987.16;;;3.92;75.31
43147;BME280;28752;48.266;7.402;2023-03-12T04:59:05;98981.44;;;3.87;75.44
43147;BME280;28752;48.266;7.402;2023-03-12T05:01:33;98993.75;;;3.98;76.37
43147;BME280;28752;48.266;7.402;2023-03-12T05:03:59;98998.81;;;3.88;75.62
43147;BME280;28752;48.266;7.402;2023-03-12T05:06:24;99005.03;;;3.87;74.61
43147;BME280;28752;48.266;7.402;2023-03-12T05:08:51;99005.16;;;3.97;75.11
43147;BME280;28752;48.266;7.402;2023-03-12T05:11:17;99008.88;;;4.06;75.01
43147;BME280;28752;48.266;7.402;2023-03-12T05:13:42;98995.06;;;4.04;75.78
43147;BME280;28752;48.266;7.402;2023-03-12T05:16:08;99003.31;;;4.11;74.84
43147;BME280;28752;48.266;7.402;2023-03-12T05:18:34;99003.03;;;4.02;75.26
43147;BME280;28752;48.266;7.402;2023-03-12T05:21:04;99008.06;;;4.05;76.01
43147;BME280;28752;48.266;7.402;2023-03-12T05:23:30;99004.81;;;4.02;75.25
43147;BME280;28752;48.266;7.402;2023-03-12T05:25:55;99005.38;;;3.94;76.06
43147;BME280;28752;48.266;7.402;2023-03-12T05:28:21;99003.94;;;3.90;76.11
43147;BME280;28752;48.266;7.402;2023-03-12T05:30:56;99011.66;;;3.80;76.00
43147;BME280;28752;48.266;7.402;2023-03-12T05:33:22;99010.81;;;3.80;77.45
43147;BME280;28752;48.266;7.402;2023-03-12T05:35:48;99002.47;;;3.74;77.13
43147;BME280;28752;48.266;7.402;2023-03-12T05:38:13;99002.97;;;3.80;77.76
43147;BME280;28752;48.266;7.402;2023-03-12T05:40:39;99013.38;;;3.68;78.05
43147;BME280;28752;48.266;7.402;2023-03-12T05:43:04;99014.84;;;3.72;77.67
43147;BME280;28752;48.266;7.402;2023-03-12T05:45:31;99003.13;;;3.65;77.74
43147;BME280;28752;48.266;7.402;2023-03-12T05:47:57;99011.88;;;3.77;77.70
43147;BME280;28752;48.266;7.402;2023-03-12T05:50:22;99013.16;;;3.71;78.36
43147;BME280;28752;48.266;7.402;2023-03-12T05:52:48;99016.06;;;3.80;79.34
43147;BME280;28752;48.266;7.402;2023-03-12T05:55:13;99014.63;;;3.87;79.36
43147;BME280;28752;48.266;7.402;2023-03-12T05:57:38;99012.25;;;3.84;79.66
43147;BME280;28752;48.266;7.402;2023-03-12T06:00:04;99004.50;;;3.82;79.51
43147;BME280;28752;48.266;7.402;2023-03-12T06:02:30;99000.56;;;3.77;79.22
43147;BME280;28752;48.266;7.402;2023-03-12T06:04:56;99013.22;;;3.83;79.18
43147;BME280;28752;48.266;7.402;2023-03-12T06:07:22;99020.97;;;3.84;79.09
43147;BME280;28752;48.266;7.402;2023-03-12T06:09:47;99018.13;;;3.87;78.72
43147;BME280;28752;48.266;7.402;2023-03-12T06:12:13;99012.78;;;4.00;78.83
43147;BME280;28752;48.266;7.402;2023-03-12T06:14:38;99019.28;;;4.19;78.63
43147;BME280;28752;48.266;7.402;2023-03-12T06:17:03;99017.16;;;4.24;78.86
43147;BME280;28752;48.266;7.402;2023-03-12T06:19:29;99021.72;;;4.44;78.49
43147;BME280;28752;48.266;7.402;2023-03-12T06:21:54;99017.66;;;4.40;79.19
43147;BME280;28752;48.266;7.402;2023-03-12T06:24:19;99001.69;;;4.55;78.58
43147;BME280;28752;48.266;7.402;2023-03-12T06:26:45;98991.94;;;4.68;77.85
43147;BME280;28752;48.266;7.402;2023-03-12T06:29:10;98998.72;;;4.82;78.61
43147;BME280;28752;48.266;7.402;2023-03-12T06:31:36;99003.59;;;5.09;78.31
43147;BME280;28752;48.266;7.402;2023-03-12T06:34:04;99008.53;;;5.46;77.53
43147;BME280;28752;48.266;7.402;2023-03-12T06:36:29;99008.47;;;5.69;77.10
43147;BME280;28752;48.266;7.402;2023-03-12T06:38:54;99018.72;;;5.72;77.76
43147;BME280;28752;48.266;7.402;2023-03-12T06:41:20;99020.28;;;5.75;78.31
43147;BME280;28752;48.266;7.402;2023-03-12T06:43:46;99017.41;;;5.78;78.18
43147;BME280;28752;48.266;7.402;2023-03-12T06:46:12;99023.28;;;5.70;78.32
43147;BME280;28752;48.266;7.402;2023-03-12T06:48:38;99028.22;;;5.84;77.82
43147;BME280;28752;48.266;7.402;2023-03-12T06:51:07;99041.09;;;5.55;77.82
43147;BME280;28752;48.266;7.402;2023-03-12T06:53:32;99032.47;;;5.64;77.98
43147;BME280;28752;48.266;7.402;2023-03-12T06:55:58;99025.53;;;5.75;77.89
43147;BME280;28752;48.266;7.402;2023-03-12T06:58:24;99027.91;;;5.78;77.67
43147;BME280;28752;48.266;7.402;2023-03-12T07:00:49;99037.28;;;6.03;77.66
43147;BME280;28752;48.266;7.402;2023-03-12T07:03:15;99038.13;;;6.25;77.23
43147;BME280;28752;48.266;7.402;2023-03-12T07:05:44;99037.91;;;6.58;76.57
43147;BME280;28752;48.266;7.402;2023-03-12T07:08:11;99027.34;;;6.80;75.96
43147;BME280;28752;48.266;7.402;2023-03-12T07:10:36;99010.16;;;7.16;75.47
43147;BME280;28752;48.266;7.402;2023-03-12T07:13:01;99025.22;;;7.45;74.73
43147;BME280;28752;48.266;7.402;2023-03-12T07:15:27;99027.75;;;7.66;74.42
43147;BME280;28752;48.266;7.402;2023-03-12T07:17:52;99025.13;;;8.92;70.94
43147;BME280;28752;48.266;7.402;2023-03-12T07:20:18;99027.78;;;10.01;66.31
43147;BME280;28752;48.266;7.402;2023-03-12T07:22:43;99038.94;;;10.75;64.08
43147;BME280;28752;48.266;7.402;2023-03-12T07:25:09;99040.69;;;10.22;64.92
43147;BME280;28752;48.266;7.402;2023-03-12T07:27:35;99042.59;;;9.94;66.65
43147;BME280;28752;48.266;7.402;2023-03-12T07:30:00;99048.38;;;9.62;67.67
43147;BME280;28752;48.266;7.402;2023-03-12T07:32:26;99041.81;;;9.48;67.70
43147;BME280;28752;48.266;7.402;2023-03-12T07:34:52;99054.75;;;9.69;66.87
43147;BME280;28752;48.266;7.402;2023-03-12T07:37:17;99049.22;;;9.80;66.90
43147;BME280;28752;48.266;7.402;2023-03-12T07:39:43;99060.03;;;9.69;68.07
43147;BME280;28752;48.266;7.402;2023-03-12T07:42:09;99058.28;;;9.77;67.24
43147;BME280;28752;48.266;7.402;2023-03-12T07:44:37;99063.28;;;9.35;68.41
43147;BME280;28752;48.266;7.402;2023-03-12T07:47:02;99057.41;;;9.13;69.42
43147;BME280;28752;48.266;7.402;2023-03-12T07:49:27;99080.09;;;9.06;69.74
43147;BME280;28752;48.266;7.402;2023-03-12T07:51:53;99081.28;;;9.21;69.34
43147;BME280;28752;48.266;7.402;2023-03-12T07:54:19;99078.31;;;9.34;69.05
43147;BME280;28752;48.266;7.402;2023-03-12T07:56:44;99077.94;;;9.47;69.40
43147;BME280;28752;48.266;7.402;2023-03-12T07:59:09;99071.25;;;9.25;70.57
43147;BME280;28752;48.266;7.402;2023-03-12T08:01:35;99081.91;;;9.05;72.03
43147;BME280;28752;48.266;7.402;2023-03-12T08:04:01;99084.50;;;9.15;72.08
43147;BME280;28752;48.266;7.402;2023-03-12T08:06:28;99076.72;;;9.14;72.44
43147;BME280;28752;48.266;7.402;2023-03-12T08:08:53;99089.69;;;9.35;72.78
43147;BME280;28752;48.266;7.402;2023-03-12T08:11:19;99088.81;;;9.44;73.17
43147;BME280;28752;48.266;7.402;2023-03-12T08:13:45;99083.22;;;9.47;73.16
43147;BME280;28752;48.266;7.402;2023-03-12T08:16:11;99087.06;;;9.81;72.55
43147;BME280;28752;48.266;7.402;2023-03-12T08:18:36;99089.22;;;10.13;72.38
43147;BME280;28752;48.266;7.402;2023-03-12T08:21:02;99085.69;;;10.40;71.43
43147;BME280;28752;48.266;7.402;2023-03-12T08:23:27;99086.66;;;10.57;71.77
43147;BME280;28752;48.266;7.402;2023-03-12T08:25:53;99090.81;;;10.86;71.37
43147;BME280;28752;48.266;7.402;2023-03-12T08:28:23;99085.47;;;11.04;71.58
43147;BME280;28752;48.266;7.402;2023-03-12T08:30:51;99096.31;;;11.19;72.50
43147;BME280;28752;48.266;7.402;2023-03-12T08:33:17;99090.22;;;11.00;71.55
43147;BME280;28752;48.266;7.402;2023-03-12T08:35:43;99106.91;;;10.66;71.75
43147;BME280;28752;48.266;7.402;2023-03-12T08:38:09;99100.84;;;10.56;71.93
43147;BME280;28752;48.266;7.402;2023-03-12T08:40:34;99103.00;;;10.53;72.08
43147;BME280;28752;48.266;7.402;2023-03-12T08:43:00;99085.53;;;10.42;71.79
43147;BME280;28752;48.266;7.402;2023-03-12T08:45:25;99109.47;;;10.22;72.49
43147;BME280;28752;48.266;7.402;2023-03-12T08:47:51;99108.09;;;10.00;73.61
43147;BME280;28752;48.266;7.402;2023-03-12T08:50:16;99098.81;;;10.14;73.50
43147;BME280;28752;48.266;7.402;2023-03-12T08:52:42;99116.88;;;10.01;74.24
43147;BME280;28752;48.266;7.402;2023-03-12T08:55:09;99101.91;;;10.09;73.94
43147;BME280;28752;48.266;7.402;2023-03-12T08:57:34;99107.97;;;10.20;73.77
43147;BME280;28752;48.266;7.402;2023-03-12T08:59:59;99119.09;;;10.05;75.03
43147;BME280;28752;48.266;7.402;2023-03-12T09:02:25;99107.03;;;10.11;75.44
43147;BME280;28752;48.266;7.402;2023-03-12T09:04:50;99120.56;;;10.36;74.79
43147;BME280;28752;48.266;7.402;2023-03-12T09:07:16;99125.59;;;10.47;74.64
43147;BME280;28752;48.266;7.402;2023-03-12T09:09:43;99123.78;;;10.47;74.05
43147;BME280;28752;48.266;7.402;2023-03-12T09:12:09;99131.25;;;10.52;73.85
43147;BME280;28752;48.266;7.402;2023-03-12T09:14:34;99135.84;;;10.32;74.83
43147;BME280;28752;48.266;7.402;2023-03-12T09:16:59;99126.13;;;10.51;74.85
43147;BME280;28752;48.266;7.402;2023-03-12T09:19:26;99137.13;;;10.82;74.48
43147;BME280;28752;48.266;7.402;2023-03-12T09:21:51;99144.41;;;11.06;73.04
43147;BME280;28752;48.266;7.402;2023-03-12T09:24:16;99143.94;;;11.11;73.03
43147;BME280;28752;48.266;7.402;2023-03-12T09:26:42;99143.75;;;11.38;72.40
43147;BME280;28752;48.266;7.402;2023-03-12T09:29:07;99152.19;;;11.68;71.81
43147;BME280;28752;48.266;7.402;2023-03-12T09:31:32;99136.03;;;11.96;71.03
43147;BME280;28752;48.266;7.402;2023-03-12T09:33:58;99147.25;;;12.41;69.31
43147;BME280;28752;48.266;7.402;2023-03-12T09:36:24;99144.63;;;12.74;67.75
43147;BME280;28752;48.266;7.402;2023-03-12T09:38:49;99153.06;;;13.10;67.47
43147;BME280;28752;48.266;7.402;2023-03-12T09:41:18;99157.19;;;13.38;65.88
43147;BME280;28752;48.266;7.402;2023-03-12T09:43:49;99154.34;;;13.39;64.71
43147;BME280;28752;48.266;7.402;2023-03-12T09:46:24;99153.84;;;13.83;64.92
43147;BME280;28752;48.266;7.402;2023-03-12T09:48:54;99150.06;;;14.32;63.94
43147;BME280;28752;48.266;7.402;2023-03-12T09:51:27;99168.34;;;14.58;61.85
43147;BME280;28752;48.266;7.402;2023-03-12T09:53:58;99163.38;;;14.79;62.01
43147;BME280;28752;48.266;7.402;2023-03-12T09:56:26;99166.09;;;14.93;60.64
43147;BME280;28752;48.266;7.402;2023-03-12T09:58:51;99169.38;;;15.19;60.48
43147;BME280;28752;48.266;7.402;2023-03-12T10:01:36;99185.41;;;14.96;59.37
43147;BME280;28752;48.266;7.402;2023-03-12T10:21:21;99170.59;;;14.47;57.66
43147;BME280;28752;48.266;7.402;2023-03-12T10:29:25;99167.56;;;14.27;57.85
43147;BME280;28752;48.266;7.402;2023-03-12T10:32:07;99172.63;;;14.45;57.84
43147;BME280;28752;48.266;7.402;2023-03-12T10:34:56;99184.44;;;14.42;57.28
43147;BME280;28752;48.266;7.402;2023-03-12T10:37:38;99187.53;;;14.54;57.84
43147;BME280;28752;48.266;7.402;2023-03-12T10:40:05;99191.19;;;14.61;57.04
43147;BME280;28752;48.266;7.402;2023-03-12T10:42:33;99172.16;;;14.64;56.03
43147;BME280;28752;48.266;7.402;2023-03-12T10:47:52;99159.94;;;14.93;54.85
43147;BME280;28752;48.266;7.402;2023-03-12T10:50:26;99176.94;;;14.92;54.63
43147;BME280;28752;48.266;7.402;2023-03-12T10:53:12;99173.41;;;14.77;55.18
43147;BME280;28752;48.266;7.402;2023-03-12T10:55:39;99165.41;;;14.77;55.74
43147;BME280;28752;48.266;7.402;2023-03-12T10:58:04;99177.06;;;14.99;55.23
43147;BME280;28752;48.266;7.402;2023-03-12T11:00:31;99180.41;;;14.78;55.00
43147;BME280;28752;48.266;7.402;2023-03-12T11:03:02;99183.31;;;15.06;54.87
43147;BME280;28752;48.266;7.402;2023-03-12T11:05:29;99193.41;;;14.96;54.68
43147;BME280;28752;48.266;7.402;2023-03-12T11:07:55;99190.81;;;14.64;56.14
43147;BME280;28752;48.266;7.402;2023-03-12T11:10:24;99184.84;;;14.85;55.61
43147;BME280;28752;48.266;7.402;2023-03-12T11:15:45;99187.91;;;14.97;55.31
43147;BME280;28752;48.266;7.402;2023-03-12T11:20:43;99190.56;;;15.12;54.88
43147;BME280;28752;48.266;7.402;2023-03-12T11:23:13;99178.47;;;15.24;54.11
43147;BME280;28752;48.266;7.402;2023-03-12T11:25:40;99184.19;;;15.21;53.65
43147;BME280;28752;48.266;7.402;2023-03-12T11:28:12;99184.50;;;15.18;53.74
43147;BME280;28752;48.266;7.402;2023-03-12T11:30:43;99195.09;;;15.12;54.08
43147;BME280;28752;48.266;7.402;2023-03-12T11:33:10;99207.56;;;14.96;55.44
43147;BME280;28752;48.266;7.402;2023-03-12T11:44:42;99201.00;;;15.22;55.46
43147;BME280;28752;48.266;7.402;2023-03-12T11:47:46;99200.38;;;15.20;55.35
43147;BME280;28752;48.266;7.402;2023-03-12T12:04:00;99201.16;;;15.88;51.70
43147;BME280;28752;48.266;7.402;2023-03-12T12:09:20;99185.38;;;15.63;50.51
43147;BME280;28752;48.266;7.402;2023-03-12T12:14:43;99202.31;;;16.01;50.02
43147;BME280;28752;48.266;7.402;2023-03-12T12:20:22;99189.78;;;16.38;50.42
43147;BME280;28752;48.266;7.402;2023-03-12T12:25:23;99197.44;;;16.62;49.67
43147;BME280;28752;48.266;7.402;2023-03-12T12:30:41;99197.56;;;16.32;48.28
43147;BME280;28752;48.266;7.402;2023-03-12T12:34:03;99188.84;;;16.45;48.97
43147;BME280;28752;48.266;7.402;2023-03-12T12:36:20;99202.56;;;16.21;49.37
43147;BME280;28752;48.266;7.402;2023-03-12T12:39:00;99193.03;;;15.96;49.87
43147;BME280;28752;48.266;7.402;2023-03-12T12:41:34;99203.59;;;15.60;50.70
43147;BME280;28752;48.266;7.402;2023-03-12T12:46:38;99187.50;;;15.68;50.49
43147;BME280;28752;48.266;7.402;2023-03-12T12:49:20;99169.28;;;15.57;50.18
43147;BME280;28752;48.266;7.402;2023-03-12T12:51:56;99169.66;;;15.69;50.86
43147;BME280;28752;48.266;7.402;2023-03-12T12:57:38;99171.09;;;16.01;49.11
43147;BME280;28752;48.266;7.402;2023-03-12T13:02:44;99158.34;;;16.18;50.04
43147;BME280;28752;48.266;7.402;2023-03-12T13:05:40;99170.28;;;16.01;50.02
43147;BME280;28752;48.266;7.402;2023-03-12T13:16:41;99160.41;;;16.01;48.90
43147;BME280;28752;48.266;7.402;2023-03-12T13:21:40;99152.38;;;15.79;49.06
43147;BME280;28752;48.266;7.402;2023-03-12T13:24:32;99156.94;;;15.56;49.35
43147;BME280;28752;48.266;7.402;2023-03-12T13:32:00;99137.63;;;15.24;49.20
43147;BME280;28752;48.266;7.402;2023-03-12T13:36:56;99130.63;;;15.53;48.71
43147;BME280;28752;48.266;7.402;2023-03-12T13:39:36;99143.03;;;15.75;48.79
43147;BME280;28752;48.266;7.402;2023-03-12T13:44:46;99126.47;;;15.95;48.42
43147;BME280;28752;48.266;7.402;2023-03-12T13:50:03;99132.41;;;16.33;46.24
43147;BME280;28752;48.266;7.402;2023-03-12T13:52:31;99116.28;;;16.20;45.94
43147;BME280;28752;48.266;7.402;2023-03-12T13:55:15;99123.97;;;15.93;44.87
43147;BME280;28752;48.266;7.402;2023-03-12T13:57:55;99126.22;;;15.75;45.59
43147;BME280;28752;48.266;7.402;2023-03-12T14:02:54;99127.44;;;15.27;45.88
43147;BME280;28752;48.266;7.402;2023-03-12T14:05:21;99128.72;;;15.32;46.65
43147;BME280;28752;48.266;7.402;2023-03-12T14:08:19;99123.38;;;15.46;47.03
43147;BME280;28752;48.266;7.402;2023-03-12T14:18:27;99116.56;;;15.14;47.36
43147;BME280;28752;48.266;7.402;2023-03-12T14:20:58;99119.44;;;15.13;47.44
43147;BME280;28752;48.266;7.402;2023-03-12T14:23:28;99119.31;;;15.21;48.97
43147;BME280;28752;48.266;7.402;2023-03-12T14:26:00;99121.06;;;15.14;47.97
43147;BME280;28752;48.266;7.402;2023-03-12T14:28:27;99124.03;;;15.19;47.77
43147;BME280;28752;48.266;7.402;2023-03-12T14:33:21;99134.78;;;14.96;47.17
43147;BME280;28752;48.266;7.402;2023-03-12T14:35:56;99117.53;;;14.68;48.71
43147;BME280;28752;48.266;7.402;2023-03-12T14:38:29;99143.53;;;14.81;48.32
43147;BME280;28752;48.266;7.402;2023-03-12T14:41:27;99143.19;;;14.84;48.15
43147;BME280;28752;48.266;7.402;2023-03-12T14:43:53;99145.25;;;15.12;48.15
43147;BME280;28752;48.266;7.402;2023-03-12T14:46:21;99148.03;;;15.19;48.78
43147;BME280;28752;48.266;7.402;2023-03-12T14:48:48;99138.66;;;15.23;48.49
43147;BME280;28752;48.266;7.402;2023-03-12T14:51:34;99133.31;;;15.38;47.24
43147;BME280;28752;48.266;7.402;2023-03-12T14:54:01;99142.16;;;15.38;46.94
43147;BME280;28752;48.266;7.402;2023-03-12T14:56:31;99138.47;;;15.24;46.68
43147;BME280;28752;48.266;7.402;2023-03-12T14:59:03;99130.94;;;15.28;46.82
43147;BME280;28752;48.266;7.402;2023-03-12T15:01:43;99139.38;;;15.32;46.73
43147;BME280;28752;48.266;7.402;2023-03-12T15:04:14;99139.13;;;15.41;47.45
43147;BME280;28752;48.266;7.402;2023-03-12T15:07:00;99144.28;;;15.43;47.52
43147;BME280;28752;48.266;7.402;2023-03-12T15:09:29;99143.06;;;15.45;47.13